sensor_id;sensor_type;location;lat;lon;timestamp;pressure;altitude;pressure_sealevel;temperature;humidity
82152;BME280;71721;47.904;-122.188;2023-07-29T00:00:31;100474.84;;;14.42;33.20
82152;BME280;71721;47.904;-122.188;2023-07-29T00:02:56;100473.40;;;13.85;32.82
82152;BME280;71721;47.904;-122.188;2023-07-29T00:05:24;100465.60;;;13.30;33.56
82152;BME280;71721;47.904;-122.188;2023-07-29T00:07:46;100469.03;;;14.28;32.72
82152;BME280;71721;47.904;-122.188;2023-07-29T00:10:12;100469.02;;;13.46;33.71
82152;BME280;71721;47.904;-122.188;2023-07-29T00:12:37;100466.90;;;14.46;33.48
82152;BME280;71721;47.904;-122.188;2023-07-29T00:15:03;100467.25;;;14.32;33.73
82152;BME280;71721;47.904;-122.188;2023-07-29T00:17:28;100468.77;;;13.93;33.69
82152;BME280;71721;47.904;-122.188;2023-07-29T00:19:53;100462.42;;;13.69;33.14
82152;BME280;71721;47.904;-122.188;2023-07-29T00:22:18;100460.67;;;15.28;31.52
82152;BME280;71721;47.904;-122.188;2023-07-29T00:24:43;100457.31;;;15.14;31.02
82152;BME280;71721;47.904;-122.188;2023-07-29T00:27:09;100459.51;;;15.07;31.81
82152;BME280;71721;47.904;-122.188;2023-07-29T00:29:33;100458.27;;;14.75;31.83
82152;BME280;71721;47.904;-122.188;2023-07-29T00:31:59;100454.62;;;14.50;32.69
82152;BME280;71721;47.904;-122.188;2023-07-29T00:34:24;100450.35;;;14.81;32.30
82152;BME280;71721;47.904;-122.188;2023-07-29T00:36:50;100453.96;;;14.39;32.25
82152;BME280;71721;47.904;-122.188;2023-07-29T00:39:15;100455.50;;;14.52;33.12
82152;BME280;71721;47.904;-122.188;2023-07-29T00:41:41;100450.99;;;13.29;34.16
82152;BME280;71721;47.904;-122.188;2023-07-29T00:44:05;100451.34;;;12.90;34.94
82152;BME280;71721;47.904;-122.188;2023-07-29T00:46:30;100452.79;;;13.77;33.40
82152;BME280;71721;47.904;-122.188;2023-07-29T00:48:56;100455.76;;;13.25;34.08
82152;BME280;71721;47.904;-122.188;2023-07-29T00:51:22;100449.41;;;13.23;34.81
82152;BME280;71721;47.904;-122.188;2023-07-29T00:53:46;100451.83;;;13.51;34.73
82152;BME280;71721;47.904;-122.188;2023-07-29T00:56:11;100447.94;;;13.31;34.31
82152;BME280;71721;47.904;-122.188;2023-07-29T00:58:36;100455.60;;;13.30;33.79
82152;BME280;71721;47.904;-122.188;2023-07-29T01:01:01;100459.65;;;12.79;33.26
82152;BME280;71721;47.904;-122.188;2023-07-29T01:03:27;100465.88;;;12.12;33.98
82152;BME280;71721;47.904;-122.188;2023-07-29T01:06:01;100481.88;;;11.98;34.07
82152;BME280;71721;47.904;-122.188;2023-07-29T01:08:21;100473.60;;;11.34;35.47
82152;BME280;71721;47.904;-122.188;2023-07-29T01:10:49;100479.88;;;10.50;37.11
82152;BME280;71721;47.904;-122.188;2023-07-29T01:13:13;100474.42;;;9.90;38.34
82152;BME280;71721;47.904;-122.188;2023-07-29T01:15:38;100479.52;;;10.03;37.42
82152;BME280;71721;47.904;-122.188;2023-07-29T01:18:04;100483.64;;;10.65;37.07
82152;BME280;71721;47.904;-122.188;2023-07-29T01:20:25;100474.83;;;10.84;37.19
82152;BME280;71721;47.904;-122.188;2023-07-29T01:22:49;100477.91;;;11.16;37.17
82152;BME280;71721;47.904;-122.188;2023-07-29T01:25:15;100472.97;;;9.97;38.03
82152;BME280;71721;47.904;-122.188;2023-07-29T01:27:41;100474.46;;;10.09;37.62
82152;BME280;71721;47.904;-122.188;2023-07-29T01:30:08;100478.81;;;9.20;39.57
82152;BME280;71721;47.904;-122.188;2023-07-29T01:32:37;100492.58;;;8.95;40.88
82152;BME280;71721;47.904;-122.188;2023-07-29T01:35:03;100494.11;;;9.12;40.68
82152;BME280;71721;47.904;-122.188;2023-07-29T01:37:26;100481.13;;;8.92;40.12
82152;BME280;71721;47.904;-122.188;2023-07-29T01:39:48;100469.75;;;10.11;40.84
82152;BME280;71721;47.904;-122.188;2023-07-29T01:42:12;100490.49;;;8.72;41.74
82152;BME280;71721;47.904;-122.188;2023-07-29T01:44:37;100488.00;;;8.45;42.46
82152;BME280;71721;47.904;-122.188;2023-07-29T01:47:03;100485.92;;;9.01;41.87
82152;BME280;71721;47.904;-122.188;2023-07-29T01:49:28;100488.43;;;8.96;42.03
82152;BME280;71721;47.904;-122.188;2023-07-29T01:51:54;100489.01;;;7.67;44.52
82152;BME280;71721;47.904;-122.188;2023-07-29T01:54:18;100493.30;;;8.56;44.45
82152;BME280;71721;47.904;-122.188;2023-07-29T01:56:45;100494.67;;;8.25;43.21
82152;BME280;71721;47.904;-122.188;2023-07-29T01:59:09;100496.96;;;8.55;42.78
82152;BME280;71721;47.904;-122.188;2023-07-29T02:01:34;100500.98;;;8.59;42.11
82152;BME280;71721;47.904;-122.188;2023-07-29T02:04:00;100509.06;;;7.56;44.90
82152;BME280;71721;47.904;-122.188;2023-07-29T02:06:25;100500.35;;;7.26;45.97
82152;BME280;71721;47.904;-122.188;2023-07-29T02:08:52;100498.98;;;7.58;45.72
82152;BME280;71721;47.904;-122.188;2023-07-29T02:11:16;100496.75;;;8.20;43.78
82152;BME280;71721;47.904;-122.188;2023-07-29T02:13:41;100489.01;;;8.64;42.40
82152;BME280;71721;47.904;-122.188;2023-07-29T02:16:07;100487.46;;;8.80;41.78
82152;BME280;71721;47.904;-122.188;2023-07-29T02:18:32;100493.38;;;7.44;45.44
82152;BME280;71721;47.904;-122.188;2023-07-29T02:20:57;100496.42;;;8.32;44.05
82152;BME280;71721;47.904;-122.188;2023-07-29T02:23:23;100496.58;;;7.40;45.38
82152;BME280;71721;47.904;-122.188;2023-07-29T02:25:47;100502.33;;;7.73;43.80
82152;BME280;71721;47.904;-122.188;2023-07-29T02:28:13;100500.26;;;7.48;46.68
82152;BME280;71721;47.904;-122.188;2023-07-29T02:30:43;100493.26;;;8.76;42.29
82152;BME280;71721;47.904;-122.188;2023-07-29T02:33:04;100494.99;;;9.38;40.96
82152;BME280;71721;47.904;-122.188;2023-07-29T02:35:29;100493.51;;;8.27;42.18
82152;BME280;71721;47.904;-122.188;2023-07-29T02:37:54;100488.27;;;8.64;41.80
82152;BME280;71721;47.904;-122.188;2023-07-29T02:40:20;100488.26;;;8.91;41.47
82152;BME280;71721;47.904;-122.188;2023-07-29T02:42:45;100495.15;;;8.98;42.19
82152;BME280;71721;47.904;-122.188;2023-07-29T02:45:10;100496.73;;;8.21;42.75
82152;BME280;71721;47.904;-122.188;2023-07-29T02:47:36;100500.12;;;7.80;44.04
82152;BME280;71721;47.904;-122.188;2023-07-29T02:50:01;100497.98;;;8.00;45.18
82152;BME280;71721;47.904;-122.188;2023-07-29T02:52:27;100498.58;;;7.74;44.23
82152;BME280;71721;47.904;-122.188;2023-07-29T02:54:53;100493.34;;;8.50;43.11
82152;BME280;71721;47.904;-122.188;2023-07-29T02:57:17;100495.68;;;8.90;42.00
82152;BME280;71721;47.904;-122.188;2023-07-29T02:59:44;100505.06;;;7.58;45.98
82152;BME280;71721;47.904;-122.188;2023-07-29T03:02:08;100502.40;;;7.80;45.84
82152;BME280;71721;47.904;-122.188;2023-07-29T03:04:33;100491.89;;;7.53;45.05
82152;BME280;71721;47.904;-122.188;2023-07-29T03:06:58;100494.56;;;7.14;45.74
82152;BME280;71721;47.904;-122.188;2023-07-29T03:09:24;100492.99;;;7.15;45.99
82152;BME280;71721;47.904;-122.188;2023-07-29T03:11:49;100494.65;;;7.24;45.60
82152;BME280;71721;47.904;-122.188;2023-07-29T03:14:14;100487.89;;;7.33;45.76
82152;BME280;71721;47.904;-122.188;2023-07-29T03:16:39;100485.70;;;8.80;42.46
82152;BME280;71721;47.904;-122.188;2023-07-29T03:19:05;100482.24;;;8.52;42.18
82152;BME280;71721;47.904;-122.188;2023-07-29T03:21:30;100488.38;;;7.74;44.39
82152;BME280;71721;47.904;-122.188;2023-07-29T03:23:55;100485.56;;;8.65;42.94
82152;BME280;71721;47.904;-122.188;2023-07-29T03:26:21;100486.34;;;6.71;46.24
82152;BME280;71721;47.904;-122.188;2023-07-29T03:28:47;100481.24;;;8.38;42.66
82152;BME280;71721;47.904;-122.188;2023-07-29T03:31:12;100489.40;;;5.96;43.89
82152;BME280;71721;47.904;-122.188;2023-07-29T03:33:37;100491.84;;;6.92;42.20
82152;BME280;71721;47.904;-122.188;2023-07-29T03:36:02;100492.22;;;8.58;40.67
82152;BME280;71721;47.904;-122.188;2023-07-29T03:38:28;100489.07;;;9.22;40.93
82152;BME280;71721;47.904;-122.188;2023-07-29T03:40:54;100496.86;;;6.10;45.16
82152;BME280;71721;47.904;-122.188;2023-07-29T03:43:18;100502.24;;;7.32;43.02
82152;BME280;71721;47.904;-122.188;2023-07-29T03:45:44;100495.61;;;9.40;40.17
82152;BME280;71721;47.904;-122.188;2023-07-29T03:48:09;100496.01;;;8.46;40.02
82152;BME280;71721;47.904;-122.188;2023-07-29T03:50:35;100498.19;;;8.91;40.82
82152;BME280;71721;47.904;-122.188;2023-07-29T03:53:00;100497.04;;;9.01;40.74
82152;BME280;71721;47.904;-122.188;2023-07-29T03:55:25;100496.05;;;9.17;39.77
82152;BME280;71721;47.904;-122.188;2023-07-29T03:57:50;100496.48;;;8.69;41.27
82152;BME280;71721;47.904;-122.188;2023-07-29T04:00:15;100502.95;;;7.80;42.38
82152;BME280;71721;47.904;-122.188;2023-07-29T04:02:41;100501.48;;;8.42;41.78
82152;BME280;71721;47.904;-122.188;2023-07-29T04:05:07;100502.84;;;9.79;39.95
82152;BME280;71721;47.904;-122.188;2023-07-29T04:07:32;100510.55;;;7.90;42.36
82152;BME280;71721;47.904;-122.188;2023-07-29T04:09:57;100511.43;;;8.91;41.65
82152;BME280;71721;47.904;-122.188;2023-07-29T04:12:24;100510.55;;;9.51;41.40
82152;BME280;71721;47.904;-122.188;2023-07-29T04:14:48;100511.00;;;8.25;42.30
82152;BME280;71721;47.904;-122.188;2023-07-29T04:17:12;100510.27;;;8.83;41.73
82152;BME280;71721;47.904;-122.188;2023-07-29T04:19:38;100516.12;;;7.31;43.77
82152;BME280;71721;47.904;-122.188;2023-07-29T04:22:03;100519.71;;;7.63;45.25
82152;BME280;71721;47.904;-122.188;2023-07-29T04:24:30;100520.74;;;7.20;44.31
82152;BME280;71721;47.904;-122.188;2023-07-29T04:26:55;100512.73;;;8.46;41.96
82152;BME280;71721;47.904;-122.188;2023-07-29T04:29:20;100519.64;;;8.50;42.92
82152;BME280;71721;47.904;-122.188;2023-07-29T04:31:46;100522.67;;;8.64;43.46
82152;BME280;71721;47.904;-122.188;2023-07-29T04:34:11;100519.02;;;8.63;43.13
82152;BME280;71721;47.904;-122.188;2023-07-29T04:36:37;100516.33;;;9.24;41.30
82152;BME280;71721;47.904;-122.188;2023-07-29T04:39:02;100515.88;;;8.78;40.74
82152;BME280;71721;47.904;-122.188;2023-07-29T04:41:26;100516.75;;;9.22;40.46
82152;BME280;71721;47.904;-122.188;2023-07-29T04:43:52;100516.74;;;8.06;41.61
82152;BME280;71721;47.904;-122.188;2023-07-29T04:46:17;100515.79;;;8.30;41.99
82152;BME280;71721;47.904;-122.188;2023-07-29T04:48:42;100517.88;;;9.29;40.32
82152;BME280;71721;47.904;-122.188;2023-07-29T04:51:08;100520.85;;;8.66;41.81
82152;BME280;71721;47.904;-122.188;2023-07-29T04:53:34;100524.73;;;7.26;43.34
82152;BME280;71721;47.904;-122.188;2023-07-29T04:56:04;100525.06;;;5.09;46.80
82152;BME280;71721;47.904;-122.188;2023-07-29T04:58:24;100517.02;;;8.33;41.94
82152;BME280;71721;47.904;-122.188;2023-07-29T05:00:49;100519.96;;;8.32;42.83
82152;BME280;71721;47.904;-122.188;2023-07-29T05:03:20;100525.59;;;7.44;44.00
82152;BME280;71721;47.904;-122.188;2023-07-29T05:05:40;100523.22;;;5.80;45.50
82152;BME280;71721;47.904;-122.188;2023-07-29T05:08:05;100525.15;;;8.16;43.01
82152;BME280;71721;47.904;-122.188;2023-07-29T05:10:31;100521.53;;;8.65;41.87
82152;BME280;71721;47.904;-122.188;2023-07-29T05:12:57;100525.18;;;8.86;40.45
82152;BME280;71721;47.904;-122.188;2023-07-29T05:15:22;100524.27;;;7.71;41.41
82152;BME280;71721;47.904;-122.188;2023-07-29T05:17:47;100528.06;;;7.60;42.32
82152;BME280;71721;47.904;-122.188;2023-07-29T05:20:12;100523.80;;;7.85;41.85
82152;BME280;71721;47.904;-122.188;2023-07-29T05:22:49;100526.06;;;5.98;43.08
82152;BME280;71721;47.904;-122.188;2023-07-29T05:25:03;100519.07;;;7.36;41.05
82152;BME280;71721;47.904;-122.188;2023-07-29T05:27:29;100526.20;;;6.37;42.99
82152;BME280;71721;47.904;-122.188;2023-07-29T05:29:54;100523.75;;;8.50;40.38
82152;BME280;71721;47.904;-122.188;2023-07-29T05:32:20;100518.87;;;9.81;39.90
82152;BME280;71721;47.904;-122.188;2023-07-29T05:34:45;100517.97;;;8.76;40.14
82152;BME280;71721;47.904;-122.188;2023-07-29T05:37:10;100517.87;;;8.60;40.65
82152;BME280;71721;47.904;-122.188;2023-07-29T05:39:36;100522.43;;;5.88;43.20
82152;BME280;71721;47.904;-122.188;2023-07-29T05:42:01;100512.61;;;7.35;41.21
82152;BME280;71721;47.904;-122.188;2023-07-29T05:44:26;100512.14;;;7.48;40.34
82152;BME280;71721;47.904;-122.188;2023-07-29T05:46:52;100513.96;;;8.65;39.07
82152;BME280;71721;47.904;-122.188;2023-07-29T05:49:17;100512.52;;;10.95;37.04
82152;BME280;71721;47.904;-122.188;2023-07-29T05:51:42;100512.62;;;11.24;36.60
82152;BME280;71721;47.904;-122.188;2023-07-29T05:54:08;100512.82;;;7.56;39.92
82152;BME280;71721;47.904;-122.188;2023-07-29T05:56:39;100522.57;;;6.07;42.27
82152;BME280;71721;47.904;-122.188;2023-07-29T05:58:59;100520.49;;;9.93;37.98
82152;BME280;71721;47.904;-122.188;2023-07-29T06:01:25;100522.12;;;9.43;38.24
82152;BME280;71721;47.904;-122.188;2023-07-29T06:03:49;100525.54;;;5.48;42.96
82152;BME280;71721;47.904;-122.188;2023-07-29T06:06:15;100528.20;;;6.59;41.57
82152;BME280;71721;47.904;-122.188;2023-07-29T06:08:51;100529.11;;;8.01;39.40
82152;BME280;71721;47.904;-122.188;2023-07-29T06:11:11;100538.84;;;4.86;43.08
82152;BME280;71721;47.904;-122.188;2023-07-29T06:13:30;100539.45;;;5.71;43.01
82152;BME280;71721;47.904;-122.188;2023-07-29T06:15:56;100533.58;;;6.69;41.33
82152;BME280;71721;47.904;-122.188;2023-07-29T06:18:27;100531.00;;;7.59;40.75
82152;BME280;71721;47.904;-122.188;2023-07-29T06:20:46;100535.83;;;5.33;43.00
82152;BME280;71721;47.904;-122.188;2023-07-29T06:23:12;100538.02;;;5.72;43.59
82152;BME280;71721;47.904;-122.188;2023-07-29T06:25:37;100536.95;;;4.60;44.98
82152;BME280;71721;47.904;-122.188;2023-07-29T06:28:03;100537.22;;;4.68;45.32
82152;BME280;71721;47.904;-122.188;2023-07-29T06:30:29;100541.10;;;6.29;43.22
82152;BME280;71721;47.904;-122.188;2023-07-29T06:32:54;100542.20;;;5.33;43.96
82152;BME280;71721;47.904;-122.188;2023-07-29T06:35:19;100541.54;;;5.73;43.49
82152;BME280;71721;47.904;-122.188;2023-07-29T06:37:49;100539.12;;;6.37;44.17
82152;BME280;71721;47.904;-122.188;2023-07-29T06:40:10;100540.62;;;4.51;46.93
82152;BME280;71721;47.904;-122.188;2023-07-29T06:42:35;100542.28;;;5.86;44.21
82152;BME280;71721;47.904;-122.188;2023-07-29T06:45:00;100543.60;;;6.70;43.96
82152;BME280;71721;47.904;-122.188;2023-07-29T06:47:26;100535.63;;;8.52;40.37
82152;BME280;71721;47.904;-122.188;2023-07-29T06:49:54;100543.16;;;5.86;43.76
82152;BME280;71721;47.904;-122.188;2023-07-29T06:52:16;100538.94;;;4.09;46.48
82152;BME280;71721;47.904;-122.188;2023-07-29T06:54:42;100541.15;;;5.47;45.26
82152;BME280;71721;47.904;-122.188;2023-07-29T06:57:07;100538.46;;;5.01;45.79
82152;BME280;71721;47.904;-122.188;2023-07-29T06:59:33;100543.02;;;5.87;44.40
82152;BME280;71721;47.904;-122.188;2023-07-29T07:01:58;100543.12;;;5.91;43.53
82152;BME280;71721;47.904;-122.188;2023-07-29T07:04:24;100542.75;;;6.27;43.75
82152;BME280;71721;47.904;-122.188;2023-07-29T07:06:49;100537.21;;;7.21;42.61
82152;BME280;71721;47.904;-122.188;2023-07-29T07:09:16;100532.92;;;8.09;42.63
82152;BME280;71721;47.904;-122.188;2023-07-29T07:11:41;100539.79;;;6.49;43.98
82152;BME280;71721;47.904;-122.188;2023-07-29T07:14:10;100535.08;;;8.46;41.57
82152;BME280;71721;47.904;-122.188;2023-07-29T07:16:32;100540.35;;;5.81;43.81
82152;BME280;71721;47.904;-122.188;2023-07-29T07:18:56;100539.32;;;4.81;45.72
82152;BME280;71721;47.904;-122.188;2023-07-29T07:21:21;100536.54;;;8.00;41.11
82152;BME280;71721;47.904;-122.188;2023-07-29T07:23:48;100541.24;;;6.66;43.04
82152;BME280;71721;47.904;-122.188;2023-07-29T07:26:13;100540.74;;;5.19;45.51
82152;BME280;71721;47.904;-122.188;2023-07-29T07:28:38;100541.80;;;5.99;44.01
82152;BME280;71721;47.904;-122.188;2023-07-29T07:31:03;100542.44;;;6.32;43.69
82152;BME280;71721;47.904;-122.188;2023-07-29T07:33:28;100540.97;;;6.15;44.19
82152;BME280;71721;47.904;-122.188;2023-07-29T07:35:54;100539.28;;;4.75;46.86
82152;BME280;71721;47.904;-122.188;2023-07-29T07:38:20;100535.71;;;4.91;46.85
82152;BME280;71721;47.904;-122.188;2023-07-29T07:40:54;100534.65;;;4.45;47.47
82152;BME280;71721;47.904;-122.188;2023-07-29T07:43:09;100541.47;;;6.17;45.28
82152;BME280;71721;47.904;-122.188;2023-07-29T07:45:35;100542.90;;;6.51;43.87
82152;BME280;71721;47.904;-122.188;2023-07-29T07:48:00;100535.50;;;8.69;40.75
82152;BME280;71721;47.904;-122.188;2023-07-29T07:50:31;100535.91;;;8.54;41.13
82152;BME280;71721;47.904;-122.188;2023-07-29T07:52:51;100540.99;;;6.08;43.82
82152;BME280;71721;47.904;-122.188;2023-07-29T07:55:16;100540.85;;;6.57;43.46
82152;BME280;71721;47.904;-122.188;2023-07-29T07:57:42;100543.48;;;6.25;44.19
82152;BME280;71721;47.904;-122.188;2023-07-29T08:00:07;100545.01;;;6.05;44.54
82152;BME280;71721;47.904;-122.188;2023-07-29T08:02:32;100546.89;;;5.65;45.32
82152;BME280;71721;47.904;-122.188;2023-07-29T08:04:57;100544.45;;;5.51;46.47
82152;BME280;71721;47.904;-122.188;2023-07-29T08:07:23;100548.64;;;7.14;43.49
82152;BME280;71721;47.904;-122.188;2023-07-29T08:09:48;100548.31;;;5.87;44.83
82152;BME280;71721;47.904;-122.188;2023-07-29T08:12:14;100549.15;;;5.39;45.17
82152;BME280;71721;47.904;-122.188;2023-07-29T08:14:41;100553.84;;;6.71;43.39
82152;BME280;71721;47.904;-122.188;2023-07-29T08:17:05;100556.04;;;5.55;44.97
82152;BME280;71721;47.904;-122.188;2023-07-29T08:19:30;100553.83;;;4.86;45.89
82152;BME280;71721;47.904;-122.188;2023-07-29T08:21:55;100553.43;;;5.68;45.06
82152;BME280;71721;47.904;-122.188;2023-07-29T08:24:22;100554.12;;;6.52;44.14
82152;BME280;71721;47.904;-122.188;2023-07-29T08:26:46;100553.97;;;5.23;45.73
82152;BME280;71721;47.904;-122.188;2023-07-29T08:29:11;100555.20;;;5.11;45.86
82152;BME280;71721;47.904;-122.188;2023-07-29T08:31:42;100555.19;;;5.70;44.71
82152;BME280;71721;47.904;-122.188;2023-07-29T08:34:02;100555.37;;;7.46;42.66
82152;BME280;71721;47.904;-122.188;2023-07-29T08:36:27;100555.42;;;6.52;42.82
82152;BME280;71721;47.904;-122.188;2023-07-29T08:38:58;100554.99;;;8.48;40.81
82152;BME280;71721;47.904;-122.188;2023-07-29T08:41:29;100561.37;;;6.70;43.15
82152;BME280;71721;47.904;-122.188;2023-07-29T08:43:50;100564.27;;;5.67;43.79
82152;BME280;71721;47.904;-122.188;2023-07-29T08:46:10;100563.99;;;4.74;46.02
82152;BME280;71721;47.904;-122.188;2023-07-29T08:48:41;100564.64;;;5.54;45.79
82152;BME280;71721;47.904;-122.188;2023-07-29T08:51:03;100562.40;;;4.82;46.35
82152;BME280;71721;47.904;-122.188;2023-07-29T08:53:25;100565.80;;;5.81;44.89
82152;BME280;71721;47.904;-122.188;2023-07-29T08:55:51;100562.84;;;6.16;44.39
82152;BME280;71721;47.904;-122.188;2023-07-29T08:58:16;100561.78;;;5.95;44.59
82152;BME280;71721;47.904;-122.188;2023-07-29T09:00:42;100560.25;;;5.32;46.17
82152;BME280;71721;47.904;-122.188;2023-07-29T09:03:09;100558.25;;;7.91;42.75
82152;BME280;71721;47.904;-122.188;2023-07-29T09:05:33;100558.50;;;7.59;42.57
82152;BME280;71721;47.904;-122.188;2023-07-29T09:07:58;100560.71;;;5.36;45.36
82152;BME280;71721;47.904;-122.188;2023-07-29T09:10:26;100554.21;;;9.74;40.59
82152;BME280;71721;47.904;-122.188;2023-07-29T09:12:49;100555.65;;;8.00;42.18
82152;BME280;71721;47.904;-122.188;2023-07-29T09:15:26;100560.01;;;5.21;46.26
82152;BME280;71721;47.904;-122.188;2023-07-29T09:17:41;100562.47;;;4.76;47.31
82152;BME280;71721;47.904;-122.188;2023-07-29T09:20:06;100567.24;;;6.68;44.58
82152;BME280;71721;47.904;-122.188;2023-07-29T09:22:31;100565.75;;;7.04;43.46
82152;BME280;71721;47.904;-122.188;2023-07-29T09:24:58;100561.76;;;9.29;41.39
82152;BME280;71721;47.904;-122.188;2023-07-29T09:27:28;100561.36;;;7.26;42.95
82152;BME280;71721;47.904;-122.188;2023-07-29T09:29:47;100556.38;;;8.02;42.03
82152;BME280;71721;47.904;-122.188;2023-07-29T09:32:20;100554.07;;;7.81;41.59
82152;BME280;71721;47.904;-122.188;2023-07-29T09:34:42;100554.29;;;10.48;38.57
82152;BME280;71721;47.904;-122.188;2023-07-29T09:37:24;100555.60;;;8.29;41.65
82152;BME280;71721;47.904;-122.188;2023-07-29T09:39:49;100560.25;;;9.41;42.13
82152;BME280;71721;47.904;-122.188;2023-07-29T09:42:18;100563.79;;;8.80;42.51
82152;BME280;71721;47.904;-122.188;2023-07-29T09:44:39;100562.36;;;9.60;40.56
82152;BME280;71721;47.904;-122.188;2023-07-29T09:47:05;100564.16;;;7.86;41.75
82152;BME280;71721;47.904;-122.188;2023-07-29T09:49:35;100570.84;;;8.53;41.48
82152;BME280;71721;47.904;-122.188;2023-07-29T09:51:56;100570.09;;;10.39;38.87
82152;BME280;71721;47.904;-122.188;2023-07-29T09:54:21;100568.46;;;11.13;38.05
82152;BME280;71721;47.904;-122.188;2023-07-29T09:56:54;100569.21;;;11.76;37.20
82152;BME280;71721;47.904;-122.188;2023-07-29T09:59:13;100571.45;;;11.20;37.74
82152;BME280;71721;47.904;-122.188;2023-07-29T10:01:37;100574.36;;;11.06;37.35
82152;BME280;71721;47.904;-122.188;2023-07-29T10:04:03;100572.90;;;11.81;36.59
82152;BME280;71721;47.904;-122.188;2023-07-29T10:06:28;100577.78;;;11.64;36.95
82152;BME280;71721;47.904;-122.188;2023-07-29T10:08:53;100574.80;;;11.74;37.03
82152;BME280;71721;47.904;-122.188;2023-07-29T10:11:18;100576.82;;;11.76;36.82
82152;BME280;71721;47.904;-122.188;2023-07-29T10:13:43;100575.78;;;12.00;36.60
82152;BME280;71721;47.904;-122.188;2023-07-29T10:16:11;100572.01;;;11.21;37.48
82152;BME280;71721;47.904;-122.188;2023-07-29T10:18:34;100575.11;;;11.25;37.74
82152;BME280;71721;47.904;-122.188;2023-07-29T10:21:00;100579.95;;;11.01;38.34
82152;BME280;71721;47.904;-122.188;2023-07-29T10:23:26;100574.59;;;11.01;38.25
82152;BME280;71721;47.904;-122.188;2023-07-29T10:25:56;100572.53;;;11.13;38.03
82152;BME280;71721;47.904;-122.188;2023-07-29T10:28:16;100573.15;;;10.89;38.22
82152;BME280;71721;47.904;-122.188;2023-07-29T10:30:41;100573.45;;;11.26;38.17
82152;BME280;71721;47.904;-122.188;2023-07-29T10:33:06;100569.23;;;11.05;38.11
82152;BME280;71721;47.904;-122.188;2023-07-29T10:35:38;100571.04;;;11.21;37.95
82152;BME280;71721;47.904;-122.188;2023-07-29T10:38:05;100573.50;;;11.09;37.94
82152;BME280;71721;47.904;-122.188;2023-07-29T10:40:23;100575.57;;;11.33;37.80
82152;BME280;71721;47.904;-122.188;2023-07-29T10:43:11;100577.15;;;11.85;37.60
82152;BME280;71721;47.904;-122.188;2023-07-29T10:45:22;100577.98;;;11.88;37.78
82152;BME280;71721;47.904;-122.188;2023-07-29T10:47:39;100575.06;;;11.33;38.20
82152;BME280;71721;47.904;-122.188;2023-07-29T10:50:18;100575.57;;;10.68;38.72
82152;BME280;71721;47.904;-122.188;2023-07-29T10:52:40;100574.02;;;10.34;38.85
82152;BME280;71721;47.904;-122.188;2023-07-29T10:54:55;100574.27;;;11.10;38.70
82152;BME280;71721;47.904;-122.188;2023-07-29T10:57:32;100573.47;;;10.89;38.44
82152;BME280;71721;47.904;-122.188;2023-07-29T10:59:56;100570.09;;;11.39;37.86
82152;BME280;71721;47.904;-122.188;2023-07-29T11:02:18;100571.37;;;11.41;38.57
82152;BME280;71721;47.904;-122.188;2023-07-29T11:04:46;100571.44;;;10.35;39.23
82152;BME280;71721;47.904;-122.188;2023-07-29T11:07:23;100572.99;;;10.42;38.99
82152;BME280;71721;47.904;-122.188;2023-07-29T11:09:51;100575.59;;;10.93;38.83
82152;BME280;71721;47.904;-122.188;2023-07-29T11:11:53;100576.74;;;10.50;39.20
82152;BME280;71721;47.904;-122.188;2023-07-29T11:14:20;100577.52;;;10.44;39.29
82152;BME280;71721;47.904;-122.188;2023-07-29T11:16:43;100577.96;;;11.27;39.05
82152;BME280;71721;47.904;-122.188;2023-07-29T11:19:12;100579.94;;;11.09;38.98
82152;BME280;71721;47.904;-122.188;2023-07-29T11:21:34;100581.12;;;10.71;39.44
82152;BME280;71721;47.904;-122.188;2023-07-29T11:23:59;100582.53;;;10.11;39.67
82152;BME280;71721;47.904;-122.188;2023-07-29T11:26:25;100581.70;;;10.43;39.25
82152;BME280;71721;47.904;-122.188;2023-07-29T11:28:50;100583.44;;;10.40;38.97
82152;BME280;71721;47.904;-122.188;2023-07-29T11:31:16;100586.89;;;10.54;39.05
82152;BME280;71721;47.904;-122.188;2023-07-29T11:33:42;100588.73;;;10.89;38.87
82152;BME280;71721;47.904;-122.188;2023-07-29T11:36:17;100590.06;;;11.19;39.11
82152;BME280;71721;47.904;-122.188;2023-07-29T11:38:33;100592.47;;;10.87;39.32
82152;BME280;71721;47.904;-122.188;2023-07-29T11:41:01;100594.32;;;10.45;39.68
82152;BME280;71721;47.904;-122.188;2023-07-29T11:43:23;100599.21;;;11.37;38.91
82152;BME280;71721;47.904;-122.188;2023-07-29T11:45:54;100596.63;;;10.37;39.29
82152;BME280;71721;47.904;-122.188;2023-07-29T11:48:15;100599.16;;;10.79;39.03
82152;BME280;71721;47.904;-122.188;2023-07-29T11:50:39;100603.16;;;11.05;39.06
82152;BME280;71721;47.904;-122.188;2023-07-29T11:53:05;100604.48;;;10.06;39.65
82152;BME280;71721;47.904;-122.188;2023-07-29T11:55:30;100605.15;;;9.52;40.83
82152;BME280;71721;47.904;-122.188;2023-07-29T11:57:55;100609.72;;;10.55;39.65
82152;BME280;71721;47.904;-122.188;2023-07-29T12:00:23;100613.18;;;10.53;39.16
82152;BME280;71721;47.904;-122.188;2023-07-29T12:02:50;100614.63;;;10.73;39.11
82152;BME280;71721;47.904;-122.188;2023-07-29T12:05:13;100616.56;;;10.40;39.52
82152;BME280;71721;47.904;-122.188;2023-07-29T12:07:39;100617.13;;;10.92;38.95
82152;BME280;71721;47.904;-122.188;2023-07-29T12:10:06;100620.03;;;10.48;38.94
82152;BME280;71721;47.904;-122.188;2023-07-29T12:12:28;100620.45;;;10.81;39.27
82152;BME280;71721;47.904;-122.188;2023-07-29T12:14:55;100620.26;;;9.86;41.02
82152;BME280;71721;47.904;-122.188;2023-07-29T12:17:19;100620.66;;;9.69;41.00